Time;durP1;ratioP1;P1;durP2;ratioP2;P2;SDS_P1;SDS_P2;PMS_P1;PMS_P2;Temp;Humidity;BMP_temperature;BMP_pressure;BME280_temperature;BME280_humidity;BME280_pressure;Samples;Min_cycle;Max_cycle;Signal;HPM_P1;HPM_P2
2022/01/19 00:01:59;;;;;;;78.50;40.88;;;4.40;99.90;;;;;;5044111;28;20041;-48
2022/01/19 00:04:25;;;;;;;71.18;37.33;;;4.40;99.90;;;;;;5043981;28;20080;-46
2022/01/19 00:06:50;;;;;;;60.17;29.35;;;4.50;99.90;;;;;;5041531;28;20132;-47
2022/01/19 00:09:16;;;;;;;67.20;36.30;;;4.40;99.90;;;;;;5025773;28;20537;-47
2022/01/19 00:11:42;;;;;;;81.45;40.75;;;4.40;99.90;;;;;;5026218;28;20048;-47
2022/01/19 00:14:08;;;;;;;76.22;42.55;;;4.40;99.90;;;;;;5044641;28;20048;-47
2022/01/19 00:16:34;;;;;;;79.50;42.75;;;4.40;99.90;;;;;;5025604;28;20049;-47
2022/01/19 00:19:00;;;;;;;63.53;32.10;;;4.40;99.90;;;;;;5044583;28;20056;-47
2022/01/19 00:21:26;;;;;;;56.42;29.42;;;4.30;99.90;;;;;;5044053;28;20037;-50
2022/01/19 00:23:52;;;;;;;67.68;38.13;;;4.40;99.90;;;;;;5025340;28;20102;-46
2022/01/19 00:26:18;;;;;;;67.60;35.10;;;4.30;99.90;;;;;;5022301;28;20049;-47
2022/01/19 00:28:43;;;;;;;74.60;40.65;;;4.30;99.90;;;;;;5025371;28;20154;-47
2022/01/19 00:31:09;;;;;;;70.60;34.35;;;4.30;99.90;;;;;;5043721;28;20057;-48
2022/01/19 00:33:36;;;;;;;62.42;27.67;;;4.30;99.90;;;;;;5046287;28;20060;-50
2022/01/19 00:36:02;;;;;;;71.00;33.75;;;4.30;99.90;;;;;;5010834;28;20491;-48
2022/01/19 00:38:28;;;;;;;73.47;37.97;;;4.30;99.90;;;;;;5025896;28;20045;-50
2022/01/19 00:40:55;;;;;;;69.32;35.05;;;4.30;99.90;;;;;;5043504;28;20087;-51
2022/01/19 00:43:21;;;;;;;63.63;30.30;;;4.30;99.90;;;;;;5043626;28;20674;-46
2022/01/19 00:45:46;;;;;;;64.85;31.25;;;4.30;99.90;;;;;;5043037;28;20513;-47
2022/01/19 00:48:12;;;;;;;56.95;29.60;;;4.20;99.90;;;;;;5042988;28;20179;-47
2022/01/19 00:50:38;;;;;;;53.67;26.13;;;4.20;99.90;;;;;;5042211;28;20044;-47
2022/01/19 00:53:03;;;;;;;56.17;32.70;;;4.20;99.90;;;;;;5024097;28;20323;-47
2022/01/19 00:55:29;;;;;;;72.90;36.28;;;4.20;99.90;;;;;;5045417;28;20564;-47
2022/01/19 00:57:56;;;;;;;65.95;31.48;;;4.10;99.90;;;;;;5028930;28;20055;-50
2022/01/19 01:00:26;;;;;;;66.38;31.95;;;4.10;99.90;;;;;;5046291;28;20517;-47
2022/01/19 01:02:52;;;;;;;82.32;36.17;;;4.20;99.90;;;;;;5024720;28;20067;-47
2022/01/19 01:05:18;;;;;;;89.20;40.80;;;4.10;99.90;;;;;;5025042;28;20063;-47
2022/01/19 01:07:44;;;;;;;91.10;40.60;;;4.10;99.90;;;;;;5024753;28;20080;-47
2022/01/19 01:10:17;;;;;;;94.95;41.97;;;4.10;99.90;;;;;;5042447;28;20147;-47
2022/01/19 01:12:49;;;;;;;93.07;42.28;;;4.20;99.90;;;;;;5017084;28;20057;-47
2022/01/19 01:20:30;;;;;;;73.65;35.70;;;4.20;99.90;;;;;;5043185;28;20057;-49
2022/01/19 01:22:56;;;;;;;79.20;41.05;;;4.10;99.90;;;;;;5042304;28;20484;-48
2022/01/19 01:25:22;;;;;;;80.43;38.95;;;4.20;99.90;;;;;;5034585;28;20056;-47
2022/01/19 01:27:48;;;;;;;76.68;38.92;;;4.20;99.90;;;;;;5042472;28;20071;-48
2022/01/19 01:30:14;;;;;;;73.10;36.20;;;4.10;99.90;;;;;;5042144;28;20053;-50
2022/01/19 01:32:40;;;;;;;77.82;37.47;;;4.20;99.90;;;;;;5041623;28;20118;-46
2022/01/19 01:35:06;;;;;;;86.82;40.78;;;4.10;99.90;;;;;;5043183;28;20045;-47
2022/01/19 01:37:32;;;;;;;75.18;39.17;;;4.20;99.90;;;;;;5007787;28;20068;-50
2022/01/19 01:40:00;;;;;;;88.40;45.65;;;4.20;99.90;;;;;;5043424;28;20048;-48
2022/01/19 01:42:26;;;;;;;71.60;35.45;;;4.20;99.90;;;;;;5043029;28;20044;-47
2022/01/19 01:44:55;;;;;;;84.53;35.33;;;4.20;99.90;;;;;;5046399;28;20499;-47
2022/01/19 01:47:22;;;;;;;74.88;36.17;;;4.20;99.90;;;;;;5043122;28;20132;-49
2022/01/19 01:55:13;;;;;;;94.63;46.72;;;4.20;99.90;;;;;;5041980;28;20049;-46
2022/01/19 01:57:39;;;;;;;107.35;50.33;;;4.30;99.90;;;;;;5030579;28;20434;-49
2022/01/19 02:00:10;;;;;;;98.70;46.25;;;4.30;99.90;;;;;;5041511;28;20056;-47
2022/01/19 02:02:36;;;;;;;93.93;42.75;;;4.30;99.90;;;;;;5032401;28;20395;-48
2022/01/19 02:05:03;;;;;;;99.43;43.65;;;4.30;99.90;;;;;;5041321;28;20056;-47
2022/01/19 02:07:39;;;;;;;98.95;43.65;;;4.30;99.90;;;;;;5043015;28;20057;-47
2022/01/19 02:10:08;;;;;;;104.07;49.25;;;4.30;99.90;;;;;;5041262;28;20060;-48
2022/01/19 02:23:44;;;;;;;115.97;49.30;;;4.30;99.90;;;;;;5041071;28;20491;-47
2022/01/19 02:26:16;;;;;;;121.35;48.88;;;4.30;99.90;;;;;;5039139;28;20060;-46
2022/01/19 02:50:39;;;;;;;149.85;42.35;;;3.90;99.90;;;;;;4903844;29;20055;-47
2022/01/19 02:53:05;;;;;;;142.77;38.10;;;3.90;99.90;;;;;;4887990;29;20068;-47
2022/01/19 02:55:33;;;;;;;152.00;37.33;;;3.80;99.90;;;;;;4906307;29;20505;-48
2022/01/19 02:57:59;;;;;;;167.18;39.15;;;3.70;99.90;;;;;;4910356;29;20067;-47
2022/01/19 03:08:47;;;;;;;169.30;39.17;;;3.60;99.90;;;;;;4905542;29;20052;-48
2022/01/19 03:11:17;;;;;;;191.15;40.20;;;3.60;99.90;;;;;;4953822;28;20222;-50
2022/01/19 03:13:45;;;;;;;180.63;39.65;;;3.50;99.90;;;;;;5009742;28;20053;-49
2022/01/19 03:16:12;;;;;;;165.63;39.92;;;3.50;99.90;;;;;;5040228;28;20044;-49
2022/01/19 03:18:38;;;;;;;145.82;37.83;;;3.60;99.90;;;;;;5043257;28;20048;-47
2022/01/19 03:21:04;;;;;;;215.27;39.85;;;3.50;99.90;;;;;;5045494;28;20385;-47
2022/01/19 03:23:30;;;;;;;120.47;31.95;;;3.50;99.90;;;;;;5044003;28;20045;-47
2022/01/19 03:25:58;;;;;;;132.55;31.92;;;3.40;99.90;;;;;;5042546;28;20044;-49
2022/01/19 03:28:24;;;;;;;142.68;31.75;;;3.30;99.90;;;;;;5044629;28;20562;-48
2022/01/19 03:30:50;;;;;;;125.85;29.92;;;3.30;99.90;;;;;;5044441;28;20485;-48
2022/01/19 03:33:16;;;;;;;105.03;29.95;;;3.20;99.90;;;;;;5032044;28;20387;-47
2022/01/19 03:35:43;;;;;;;128.35;31.17;;;3.20;99.90;;;;;;5026132;28;20049;-48
2022/01/19 03:38:10;;;;;;;105.65;29.35;;;3.30;99.90;;;;;;5026429;28;20053;-48
2022/01/19 03:40:36;;;;;;;127.25;30.77;;;3.20;99.90;;;;;;5044540;28;20051;-47
2022/01/19 03:43:05;;;;;;;111.63;30.17;;;3.20;99.90;;;;;;5044338;28;20103;-48
2022/01/19 03:45:33;;;;;;;123.15;29.25;;;3.30;99.90;;;;;;5026429;28;20464;-47
2022/01/19 03:50:44;;;;;;;122.82;29.23;;;3.20;99.90;;;;;;5044892;28;20529;-46
2022/01/19 03:53:10;;;;;;;79.32;27.35;;;3.20;99.90;;;;;;5043414;28;20065;-47
2022/01/19 03:55:35;;;;;;;123.38;30.35;;;3.20;99.90;;;;;;5027072;28;20068;-46
2022/01/19 03:58:01;;;;;;;133.55;31.80;;;3.20;99.90;;;;;;5052295;28;20041;-48
2022/01/19 04:00:34;;;;;;;126.43;30.77;;;3.30;99.90;;;;;;5045041;28;20910;-48
2022/01/19 04:03:00;;;;;;;102.75;28.48;;;3.30;99.90;;;;;;5045389;28;20066;-46
2022/01/19 04:05:40;;;;;;;118.10;28.63;;;3.30;99.90;;;;;;5047730;28;20041;-47
2022/01/19 04:08:06;;;;;;;96.55;27.08;;;3.30;99.90;;;;;;5027130;28;20044;-49
2022/01/19 04:10:32;;;;;;;101.20;27.83;;;3.30;99.90;;;;;;5025964;28;20169;-50
2022/01/19 04:13:26;;;;;;;103.97;27.13;;;3.30;99.90;;;;;;5043804;28;20636;-50
2022/01/19 04:15:51;;;;;;;106.65;27.90;;;3.30;99.90;;;;;;5024998;28;20055;-47
2022/01/19 04:18:18;;;;;;;91.35;27.25;;;3.30;99.90;;;;;;5042726;28;20053;-51
2022/01/19 04:20:48;;;;;;;74.38;27.10;;;3.30;99.90;;;;;;5025954;28;20415;-47
2022/01/19 04:23:15;;;;;;;76.05;28.05;;;3.30;99.90;;;;;;5044189;28;20514;-47
2022/01/19 04:25:41;;;;;;;82.45;27.10;;;3.30;99.90;;;;;;5039024;28;20057;-50
2022/01/19 04:28:07;;;;;;;85.20;27.33;;;3.20;99.90;;;;;;5025533;28;20066;-47
2022/01/19 04:30:38;;;;;;;96.72;28.70;;;3.30;99.90;;;;;;5042997;28;20045;-46
2022/01/19 04:33:11;;;;;;;94.20;29.30;;;3.30;99.90;;;;;;5043143;28;20427;-47
2022/01/19 04:35:45;;;;;;;99.35;29.52;;;3.30;99.90;;;;;;5025619;28;20049;-46
2022/01/19 04:54:13;;;;;;;90.53;29.52;;;3.40;99.90;;;;;;4998715;28;20615;-46
2022/01/19 05:01:35;;;;;;;64.47;26.63;;;3.30;99.90;;;;;;4999653;28;20569;-46
2022/01/19 05:05:46;;;;;;;78.32;27.17;;;3.40;99.90;;;;;;4981112;28;20058;-46
2022/01/19 05:08:20;;;;;;;73.63;27.38;;;3.30;99.90;;;;;;4965310;28;20054;-46
2022/01/19 05:15:50;;;;;;;75.13;27.17;;;3.30;99.90;;;;;;4984632;28;20050;-50
2022/01/19 05:18:17;;;;;;;73.20;28.83;;;3.40;99.90;;;;;;4983490;28;20524;-47
2022/01/19 05:20:45;;;;;;;79.43;30.63;;;3.40;99.90;;;;;;5026810;28;20072;-47
2022/01/19 05:23:11;;;;;;;76.13;28.52;;;3.40;99.90;;;;;;5042460;28;20167;-49
2022/01/19 05:25:37;;;;;;;70.55;28.83;;;3.40;99.90;;;;;;5039793;28;20049;-47
2022/01/19 05:28:03;;;;;;;77.40;29.48;;;3.30;99.90;;;;;;5024114;28;20574;-48
2022/01/19 05:30:31;;;;;;;72.78;28.40;;;3.40;99.90;;;;;;5042863;28;20041;-46
2022/01/19 05:32:56;;;;;;;79.47;28.83;;;3.40;99.90;;;;;;5038895;28;20052;-48
2022/01/19 05:35:22;;;;;;;74.47;30.17;;;3.40;99.90;;;;;;5042185;28;20053;-48
2022/01/19 05:37:48;;;;;;;64.70;28.55;;;3.40;99.90;;;;;;5041130;28;20153;-46
2022/01/19 05:40:14;;;;;;;72.88;29.08;;;3.40;99.90;;;;;;5042006;28;20044;-47
2022/01/19 05:42:40;;;;;;;70.90;29.77;;;3.40;99.90;;;;;;5039159;28;20053;-48
2022/01/19 05:45:06;;;;;;;74.88;30.15;;;3.40;99.90;;;;;;5042472;28;20463;-47
2022/01/19 05:47:33;;;;;;;78.38;30.23;;;3.40;99.90;;;;;;5042458;28;20041;-50
2022/01/19 05:49:58;;;;;;;70.43;31.17;;;3.30;99.90;;;;;;5042546;28;20086;-46
2022/01/19 05:52:24;;;;;;;74.70;30.23;;;3.40;99.90;;;;;;5041257;28;20506;-47
2022/01/19 05:54:50;;;;;;;67.03;29.50;;;3.30;99.90;;;;;;5039350;28;20053;-51
2022/01/19 05:57:16;;;;;;;71.22;31.83;;;3.40;99.90;;;;;;5047529;28;20098;-47
2022/01/19 05:59:42;;;;;;;82.00;32.28;;;3.40;99.90;;;;;;5041436;28;20551;-48
2022/01/19 06:02:07;;;;;;;73.18;30.77;;;3.40;99.90;;;;;;5041755;28;20135;-48
2022/01/19 06:04:33;;;;;;;78.30;31.30;;;3.30;99.90;;;;;;5023928;28;20063;-46
2022/01/19 06:07:02;;;;;;;73.78;30.85;;;3.30;99.90;;;;;;5043314;28;20037;-47
2022/01/19 06:12:11;;;;;;;74.93;31.60;;;3.30;99.90;;;;;;5051660;28;20053;-49
2022/01/19 06:14:38;;;;;;;75.05;32.25;;;3.20;99.90;;;;;;5041794;28;20107;-47
2022/01/19 06:17:05;;;;;;;75.13;33.25;;;3.30;99.90;;;;;;5024345;28;20060;-47
2022/01/19 06:19:34;;;;;;;71.70;31.85;;;3.30;99.90;;;;;;5041495;28;20062;-47
2022/01/19 06:22:00;;;;;;;76.30;32.67;;;3.30;99.90;;;;;;5042098;28;20159;-47
2022/01/19 06:24:27;;;;;;;77.05;32.65;;;3.20;99.90;;;;;;5041101;28;20130;-48
2022/01/19 06:26:54;;;;;;;74.50;33.42;;;3.20;99.90;;;;;;5034751;28;20114;-47
2022/01/19 06:29:20;;;;;;;67.70;32.65;;;3.20;99.90;;;;;;5042642;28;20045;-50
2022/01/19 06:31:47;;;;;;;72.15;30.88;;;3.30;99.90;;;;;;5041764;28;20049;-47
2022/01/19 06:34:13;;;;;;;68.53;33.50;;;3.20;99.90;;;;;;5041254;28;20137;-47
2022/01/19 06:36:39;;;;;;;84.95;34.47;;;3.30;99.90;;;;;;5040502;28;20057;-47
2022/01/19 06:39:05;;;;;;;73.95;32.50;;;3.20;99.90;;;;;;5040737;28;20187;-50
2022/01/19 06:41:32;;;;;;;77.30;33.17;;;3.20;99.90;;;;;;5041092;28;20092;-47
2022/01/19 06:43:58;;;;;;;75.82;33.85;;;3.20;99.90;;;;;;5040612;28;20052;-47
2022/01/19 06:46:24;;;;;;;74.47;33.63;;;3.30;99.90;;;;;;5041828;28;20540;-48
2022/01/19 06:48:50;;;;;;;69.00;31.73;;;3.20;99.90;;;;;;5041789;28;20045;-47
2022/01/19 06:51:16;;;;;;;74.30;34.28;;;3.30;99.90;;;;;;5042099;28;20049;-48
2022/01/19 06:53:42;;;;;;;77.70;34.45;;;3.20;99.90;;;;;;5023797;28;20175;-47
2022/01/19 06:56:08;;;;;;;84.05;36.63;;;3.30;99.90;;;;;;5048294;28;20132;-46
2022/01/19 06:58:34;;;;;;;70.57;33.33;;;3.20;99.90;;;;;;5048014;28;20052;-49
2022/01/19 07:00:59;;;;;;;78.38;34.03;;;3.20;99.90;;;;;;5026921;28;20063;-46
2022/01/19 07:03:26;;;;;;;82.03;34.90;;;3.30;99.90;;;;;;5044464;28;20059;-47
2022/01/19 07:05:52;;;;;;;79.15;34.65;;;3.30;99.90;;;;;;5045583;28;20056;-46
2022/01/19 07:08:18;;;;;;;84.30;37.42;;;3.30;99.90;;;;;;5045007;28;20396;-47
2022/01/19 07:10:44;;;;;;;76.13;34.53;;;3.30;99.90;;;;;;5053308;28;20181;-48
2022/01/19 07:13:09;;;;;;;78.53;34.75;;;3.30;99.90;;;;;;5048071;28;20049;-48
2022/01/19 07:15:36;;;;;;;78.60;33.95;;;3.30;99.90;;;;;;5044647;28;20589;-47
2022/01/19 07:18:03;;;;;;;81.45;35.75;;;3.30;99.90;;;;;;5026442;28;20061;-47
2022/01/19 07:20:29;;;;;;;78.78;35.50;;;3.40;99.90;;;;;;5045436;28;20580;-47
2022/01/19 07:23:04;;;;;;;68.40;33.35;;;3.40;99.90;;;;;;5048492;28;20466;-46
2022/01/19 07:25:30;;;;;;;81.85;35.20;;;3.30;99.90;;;;;;5051215;28;20047;-48
2022/01/19 07:27:57;;;;;;;69.15;34.55;;;3.40;99.90;;;;;;5050719;28;20052;-46
2022/01/19 07:30:25;;;;;;;76.03;34.28;;;3.40;99.90;;;;;;5051749;28;20048;-47
2022/01/19 07:32:52;;;;;;;76.95;35.35;;;3.40;99.90;;;;;;5027492;28;20478;-46
2022/01/19 07:35:18;;;;;;;79.72;36.03;;;3.30;99.90;;;;;;5048285;28;20099;-46
2022/01/19 07:37:44;;;;;;;85.63;36.78;;;3.30;99.90;;;;;;5046376;28;20067;-48
2022/01/19 07:40:10;;;;;;;79.28;37.25;;;3.40;99.90;;;;;;5037132;28;20045;-46
2022/01/19 07:42:36;;;;;;;79.47;36.53;;;3.40;99.90;;;;;;5020002;28;20110;-47
2022/01/19 07:45:03;;;;;;;84.13;37.97;;;3.40;99.90;;;;;;5016879;28;20065;-45
2022/01/19 07:47:29;;;;;;;85.35;38.58;;;3.40;99.90;;;;;;5039449;28;20083;-47
2022/01/19 07:49:57;;;;;;;84.13;38.15;;;3.50;99.90;;;;;;5036467;28;20526;-47
2022/01/19 07:52:23;;;;;;;85.47;37.90;;;3.40;99.90;;;;;;5039112;28;20527;-46
2022/01/19 07:54:50;;;;;;;81.57;39.30;;;3.40;99.90;;;;;;5033208;28;20068;-48
2022/01/19 07:57:16;;;;;;;93.15;42.05;;;3.40;99.90;;;;;;5036137;28;20119;-46
2022/01/19 07:59:42;;;;;;;92.25;42.40;;;3.40;99.90;;;;;;5033979;28;20056;-47
2022/01/19 08:02:10;;;;;;;86.85;40.75;;;3.50;99.90;;;;;;5036680;28;20049;-45
2022/01/19 08:04:36;;;;;;;93.40;41.78;;;3.40;99.90;;;;;;5034817;28;20416;-49
2022/01/19 08:07:02;;;;;;;87.90;40.45;;;3.50;99.90;;;;;;5038083;28;20099;-46
2022/01/19 08:09:28;;;;;;;91.78;38.45;;;3.40;99.90;;;;;;5034231;28;20612;-47
2022/01/19 08:11:54;;;;;;;85.03;38.72;;;3.50;99.90;;;;;;5032730;28;20096;-46
2022/01/19 08:14:21;;;;;;;90.50;40.13;;;3.50;99.90;;;;;;5034448;28;20127;-47
2022/01/19 08:16:47;;;;;;;86.15;39.40;;;3.60;99.90;;;;;;5038199;28;20133;-49
2022/01/19 08:19:12;;;;;;;96.22;42.35;;;3.60;99.90;;;;;;5033804;28;20381;-46
2022/01/19 08:21:38;;;;;;;85.20;39.78;;;3.60;99.90;;;;;;5040898;28;20041;-49
2022/01/19 08:24:05;;;;;;;95.43;41.13;;;3.60;99.90;;;;;;5039753;28;20047;-46
2022/01/19 08:26:31;;;;;;;89.05;40.22;;;3.60;99.90;;;;;;5031944;28;20041;-46
2022/01/19 08:28:57;;;;;;;94.90;42.88;;;3.70;99.90;;;;;;5035053;28;20044;-46
2022/01/19 08:31:23;;;;;;;91.75;41.70;;;3.60;99.90;;;;;;5035538;28;20064;-46
2022/01/19 08:33:48;;;;;;;85.00;39.30;;;3.60;99.90;;;;;;5043186;28;20056;-46
2022/01/19 08:36:16;;;;;;;83.18;40.72;;;3.60;99.90;;;;;;5044422;28;20041;-49
2022/01/19 08:38:42;;;;;;;89.55;42.63;;;3.70;99.90;;;;;;5045557;28;20057;-47
2022/01/19 08:41:08;;;;;;;85.32;42.67;;;3.70;99.90;;;;;;5046107;28;20091;-49
2022/01/19 08:43:35;;;;;;;85.05;40.47;;;3.70;99.90;;;;;;5041826;28;20052;-47
2022/01/19 08:46:02;;;;;;;90.90;41.60;;;3.70;99.90;;;;;;5022030;28;20147;-47
2022/01/19 08:48:27;;;;;;;91.60;42.15;;;3.70;99.90;;;;;;5037263;28;20067;-52
2022/01/19 08:50:54;;;;;;;137.07;46.67;;;3.80;99.90;;;;;;5039698;28;20559;-45
2022/01/19 08:53:22;;;;;;;88.47;42.00;;;3.70;99.90;;;;;;5037906;28;20083;-46
2022/01/19 08:55:49;;;;;;;85.28;42.22;;;3.80;99.90;;;;;;5026984;28;20060;-46
2022/01/19 08:58:15;;;;;;;83.45;40.80;;;3.80;99.90;;;;;;5041257;28;20049;-46
2022/01/19 09:00:44;;;;;;;93.70;42.97;;;3.80;99.90;;;;;;5045304;28;20446;-46
2022/01/19 09:03:11;;;;;;;86.55;39.85;;;3.80;99.90;;;;;;5042653;28;20059;-45
2022/01/19 09:05:37;;;;;;;89.15;41.63;;;3.90;99.90;;;;;;5024994;28;20594;-45
2022/01/19 09:08:03;;;;;;;91.97;44.58;;;3.90;99.90;;;;;;5043275;28;20059;-47
2022/01/19 09:10:29;;;;;;;91.82;45.75;;;3.90;99.90;;;;;;5043449;28;20114;-46
2022/01/19 09:12:55;;;;;;;106.45;45.97;;;3.90;99.90;;;;;;5043386;28;20491;-48
2022/01/19 09:15:23;;;;;;;98.72;45.92;;;3.90;99.90;;;;;;5036093;28;20040;-47
2022/01/19 09:17:48;;;;;;;94.38;44.22;;;4.00;99.90;;;;;;5031991;28;20083;-46
2022/01/19 09:20:15;;;;;;;86.07;42.60;;;4.00;99.90;;;;;;5034689;28;20132;-47
2022/01/19 09:22:42;;;;;;;86.43;45.40;;;4.00;99.90;;;;;;5032951;28;20053;-47
2022/01/19 09:25:09;;;;;;;94.05;47.60;;;4.00;99.90;;;;;;5013216;28;20049;-47
2022/01/19 09:27:38;;;;;;;89.32;43.92;;;4.00;99.90;;;;;;5032897;28;20044;-47
2022/01/19 09:30:06;;;;;;;85.57;45.70;;;4.00;99.90;;;;;;5034731;28;20640;-48
2022/01/19 09:32:32;;;;;;;95.07;45.17;;;4.00;99.90;;;;;;5032671;28;20483;-46
2022/01/19 09:35:06;;;;;;;89.07;44.53;;;4.10;99.90;;;;;;5033142;28;20116;-47
2022/01/19 09:37:32;;;;;;;92.85;43.78;;;4.10;99.90;;;;;;5015086;28;20053;-50
2022/01/19 09:39:58;;;;;;;87.43;44.67;;;4.10;99.90;;;;;;5031553;28;20053;-46
2022/01/19 09:42:24;;;;;;;93.85;45.38;;;4.10;99.90;;;;;;5032100;28;20498;-47
2022/01/19 09:44:50;;;;;;;91.55;48.90;;;4.10;99.90;;;;;;5015639;28;20124;-47
2022/01/19 09:47:15;;;;;;;86.28;45.88;;;4.10;99.90;;;;;;5031102;28;20056;-46
2022/01/19 09:49:42;;;;;;;89.95;46.28;;;4.10;99.90;;;;;;5015842;28;20515;-50
2022/01/19 09:52:08;;;;;;;91.70;45.15;;;4.10;99.90;;;;;;5042830;28;20868;-47
2022/01/19 09:54:34;;;;;;;85.40;44.15;;;4.10;99.90;;;;;;5023878;28;20060;-49
2022/01/19 09:57:00;;;;;;;80.97;43.67;;;4.20;99.90;;;;;;5024040;28;20059;-49
2022/01/19 09:59:26;;;;;;;91.30;45.28;;;4.20;99.90;;;;;;5023150;28;20241;-48
2022/01/19 10:01:55;;;;;;;87.18;46.63;;;4.20;99.90;;;;;;5021235;28;20085;-48
2022/01/19 10:04:27;;;;;;;86.20;43.85;;;4.20;99.90;;;;;;5022492;28;20507;-47
2022/01/19 10:07:19;;;;;;;82.53;43.75;;;4.20;99.90;;;;;;5017380;28;20517;-50
2022/01/19 10:09:58;;;;;;;87.07;44.63;;;4.20;99.90;;;;;;5014831;28;20049;-47
2022/01/19 10:18:20;;;;;;;84.03;44.20;;;4.20;99.90;;;;;;5019650;28;20061;-49
2022/01/19 10:20:48;;;;;;;85.20;43.85;;;4.30;99.90;;;;;;5023092;28;20053;-47
2022/01/19 10:23:52;;;;;;;90.32;43.90;;;4.20;99.90;;;;;;5017392;28;20088;-50
2022/01/19 10:26:36;;;;;;;78.82;44.17;;;4.20;99.90;;;;;;5000397;28;20058;-47
2022/01/19 10:29:10;;;;;;;86.28;46.58;;;4.30;99.90;;;;;;4983241;28;20057;-49
2022/01/19 10:31:40;;;;;;;89.32;46.58;;;4.20;99.90;;;;;;5000990;28;20488;-47
2022/01/19 10:34:23;;;;;;;92.53;48.67;;;4.30;99.90;;;;;;4984353;28;20185;-48
2022/01/19 10:36:55;;;;;;;93.05;49.15;;;4.30;99.90;;;;;;5001753;28;20536;-47
2022/01/19 10:39:23;;;;;;;96.68;50.60;;;4.30;99.90;;;;;;4982900;28;20116;-47
2022/01/19 10:42:10;;;;;;;93.72;47.95;;;4.30;99.90;;;;;;5003345;28;20053;-50
2022/01/19 10:44:41;;;;;;;92.40;49.00;;;4.30;99.90;;;;;;4998104;28;20054;-47
2022/01/19 10:47:10;;;;;;;92.97;51.40;;;4.30;99.90;;;;;;4996667;28;20101;-47
2022/01/19 10:49:56;;;;;;;93.38;49.50;;;4.30;99.90;;;;;;5000533;28;20656;-49
2022/01/19 10:52:32;;;;;;;93.68;51.05;;;4.40;99.90;;;;;;5001473;28;20113;-48
2022/01/19 10:54:59;;;;;;;92.63;50.45;;;4.50;99.90;;;;;;4984553;28;20499;-48
2022/01/19 10:57:30;;;;;;;93.57;51.33;;;4.50;99.90;;;;;;4979660;28;20299;-49
2022/01/19 11:00:16;;;;;;;94.43;51.72;;;4.60;99.90;;;;;;4977526;28;20071;-48
2022/01/19 11:02:43;;;;;;;97.53;52.67;;;4.70;99.90;;;;;;4987523;28;20133;-47
2022/01/19 11:05:10;;;;;;;100.38;53.45;;;4.70;99.90;;;;;;4998335;28;20522;-46
2022/01/19 11:07:39;;;;;;;100.40;53.75;;;4.70;99.90;;;;;;4993862;28;20051;-49
2022/01/19 11:12:45;;;;;;;91.28;52.33;;;4.80;99.90;;;;;;4997040;28;20482;-48
2022/01/19 11:15:13;;;;;;;96.60;52.95;;;4.90;99.90;;;;;;4995239;28;20050;-47
2022/01/19 11:17:46;;;;;;;96.32;53.33;;;5.00;99.90;;;;;;4994499;28;20096;-47
2022/01/19 11:20:16;;;;;;;99.35;52.65;;;5.00;99.90;;;;;;4997925;28;20085;-47
2022/01/19 11:23:26;;;;;;;90.05;52.80;;;5.00;99.90;;;;;;4998113;28;20096;-48
2022/01/19 11:25:58;;;;;;;90.43;51.20;;;5.10;99.90;;;;;;4917560;29;20078;-48
2022/01/19 11:28:55;;;;;;;85.45;51.53;;;5.10;99.90;;;;;;4922726;29;20051;-47
2022/01/19 11:31:24;;;;;;;93.65;48.92;;;5.20;99.90;;;;;;4912551;29;20067;-49
2022/01/19 11:34:13;;;;;;;89.22;51.50;;;5.30;99.90;;;;;;4928720;29;20047;-52
2022/01/19 11:36:42;;;;;;;83.70;47.97;;;5.40;99.90;;;;;;4864997;29;20109;-48
2022/01/19 11:39:21;;;;;;;85.50;49.70;;;5.50;99.90;;;;;;4864035;29;20623;-47
2022/01/19 11:41:58;;;;;;;86.07;48.15;;;5.70;99.90;;;;;;4865412;29;20424;-46
2022/01/19 11:44:33;;;;;;;83.05;46.72;;;5.80;99.90;;;;;;4871756;29;20087;-46
2022/01/19 11:47:31;;;;;;;82.18;48.47;;;5.80;99.90;;;;;;4871085;29;20461;-47
2022/01/19 11:50:15;;;;;;;84.43;46.40;;;5.80;99.90;;;;;;4842835;29;20066;-47
2022/01/19 12:11:11;;;;;;;79.18;44.10;;;5.50;99.90;;;;;;4904746;29;20151;-47
2022/01/19 12:19:13;;;;;;;77.70;44.50;;;5.50;99.90;;;;;;4948554;29;20054;-50
2022/01/19 12:21:39;;;;;;;77.95;43.05;;;5.50;99.90;;;;;;4948908;28;20087;-49
2022/01/19 12:24:21;;;;;;;75.90;44.03;;;5.50;99.90;;;;;;4947536;28;20150;-47
2022/01/19 12:26:53;;;;;;;74.05;40.80;;;5.50;99.90;;;;;;4986565;28;20101;-49
2022/01/19 12:29:38;;;;;;;76.03;43.42;;;5.50;99.90;;;;;;5004684;28;20056;-47
2022/01/19 12:32:08;;;;;;;80.32;43.70;;;5.50;99.90;;;;;;4994236;28;20136;-47
2022/01/19 12:35:11;;;;;;;68.70;39.55;;;5.50;99.90;;;;;;5003840;28;20543;-47
2022/01/19 12:37:37;;;;;;;75.68;39.60;;;5.60;99.90;;;;;;4980972;28;20414;-47
2022/01/19 12:40:18;;;;;;;72.40;42.25;;;5.60;99.90;;;;;;4981854;28;20053;-48
2022/01/19 12:42:47;;;;;;;72.30;43.28;;;5.60;99.90;;;;;;4975618;28;20065;-48
2022/01/19 12:45:29;;;;;;;70.00;40.95;;;5.60;99.90;;;;;;4963400;28;20078;-49
2022/01/19 12:48:00;;;;;;;71.07;39.22;;;5.60;99.90;;;;;;4981115;28;20066;-47
2022/01/19 12:50:29;;;;;;;72.10;44.92;;;5.60;99.90;;;;;;4981612;28;20628;-48
2022/01/19 12:53:01;;;;;;;69.65;40.17;;;5.70;99.90;;;;;;4965524;28;20600;-47
2022/01/19 12:55:30;;;;;;;62.55;37.67;;;5.80;99.90;;;;;;4982996;28;20054;-46
2022/01/19 12:57:58;;;;;;;61.97;34.97;;;5.80;99.90;;;;;;4980780;28;20413;-47
2022/01/19 13:00:30;;;;;;;60.72;36.05;;;5.70;99.90;;;;;;4979800;28;20054;-47
2022/01/19 13:02:57;;;;;;;57.07;28.13;;;5.80;99.90;;;;;;4955541;28;20432;-50
2022/01/19 13:05:27;;;;;;;62.42;38.35;;;5.80;99.90;;;;;;4983956;28;20054;-49
2022/01/19 13:07:59;;;;;;;66.75;39.53;;;5.70;99.90;;;;;;4979427;28;20062;-47
2022/01/19 13:10:51;;;;;;;67.07;38.03;;;5.70;99.90;;;;;;4980472;28;20093;-47
2022/01/19 13:13:28;;;;;;;64.25;36.97;;;5.60;99.90;;;;;;4995595;28;20093;-47
2022/01/19 13:16:00;;;;;;;59.58;37.35;;;5.60;99.90;;;;;;4994206;28;20056;-49
2022/01/19 13:18:44;;;;;;;68.32;38.47;;;5.60;99.90;;;;;;5003332;28;20057;-49
2022/01/19 13:21:13;;;;;;;62.13;35.50;;;5.60;99.90;;;;;;5002310;28;20054;-48
2022/01/19 13:24:04;;;;;;;60.72;35.90;;;5.50;99.90;;;;;;5004248;28;20513;-47
2022/01/19 13:26:45;;;;;;;64.13;36.80;;;5.60;99.90;;;;;;4994492;28;20064;-51
2022/01/19 13:29:33;;;;;;;66.63;38.45;;;5.60;99.90;;;;;;5006221;28;20576;-49
2022/01/19 13:32:16;;;;;;;63.17;35.97;;;5.60;99.90;;;;;;5000671;28;20046;-50
2022/01/19 13:34:56;;;;;;;62.22;36.75;;;5.60;99.90;;;;;;5006448;28;20054;-47
2022/01/19 13:37:24;;;;;;;64.38;34.45;;;5.50;99.90;;;;;;5003885;28;20045;-47
2022/01/19 13:40:01;;;;;;;59.47;35.13;;;5.50;99.90;;;;;;5003078;28;20057;-47
2022/01/19 13:42:37;;;;;;;58.45;32.58;;;5.50;99.90;;;;;;5001373;28;20058;-47
2022/01/19 13:45:24;;;;;;;67.72;36.15;;;5.50;99.90;;;;;;4995345;28;20079;-47
2022/01/19 13:48:02;;;;;;;61.53;32.72;;;5.50;99.90;;;;;;5002496;28;20663;-48
2022/01/19 13:50:38;;;;;;;57.78;32.88;;;5.50;99.90;;;;;;5002746;28;20042;-48
2022/01/19 13:53:03;;;;;;;67.35;33.55;;;5.50;99.90;;;;;;5001125;28;20049;-49
2022/01/19 13:55:29;;;;;;;62.85;36.35;;;5.40;99.90;;;;;;5004911;28;20042;-49
2022/01/19 13:58:15;;;;;;;60.88;31.98;;;5.40;99.90;;;;;;5002320;28;20392;-48
2022/01/19 14:00:58;;;;;;;65.15;31.85;;;5.40;99.90;;;;;;5001493;28;20057;-47
2022/01/19 14:03:42;;;;;;;66.93;33.38;;;5.40;99.90;;;;;;5002892;28;20049;-47
2022/01/19 14:06:26;;;;;;;56.75;26.83;;;5.30;99.90;;;;;;4995509;28;20037;-47
2022/01/19 14:09:10;;;;;;;;;;;5.40;99.90;;;;;;5003793;28;20057;-47
2022/01/19 14:11:37;;;;;;;52.25;24.65;;;5.30;99.90;;;;;;5008094;28;20013;-47
2022/01/19 14:14:12;;;;;;;51.05;26.80;;;5.30;99.90;;;;;;5042413;28;20053;-48
2022/01/19 14:16:47;;;;;;;57.42;25.20;;;5.30;99.90;;;;;;5025695;28;20106;-47
2022/01/19 14:19:27;;;;;;;51.70;23.63;;;5.30;99.90;;;;;;5034678;28;20037;-47
2022/01/19 14:22:12;;;;;;;53.30;24.08;;;5.30;99.90;;;;;;5025074;28;20048;-47
2022/01/19 14:24:44;;;;;;;52.75;23.63;;;5.30;99.90;;;;;;5042431;28;20048;-49
2022/01/19 14:27:21;;;;;;;52.97;23.25;;;5.30;99.90;;;;;;5033888;28;20064;-49
2022/01/19 14:30:02;;;;;;;51.45;21.67;;;5.30;99.90;;;;;;5025665;28;20407;-49
2022/01/19 14:32:45;;;;;;;51.15;26.10;;;5.30;99.90;;;;;;5018007;28;20064;-48
2022/01/19 14:35:31;;;;;;;43.72;21.70;;;5.30;99.90;;;;;;5025052;28;20057;-48
2022/01/19 14:38:10;;;;;;;47.47;21.05;;;5.30;99.90;;;;;;5046012;28;20057;-50
2022/01/19 14:40:58;;;;;;;36.95;17.40;;;5.30;99.90;;;;;;5020732;28;20143;-49
2022/01/19 14:43:39;;;;;;;46.25;22.17;;;5.30;99.90;;;;;;5022955;28;20053;-49
2022/01/19 14:46:10;;;;;;;42.67;21.25;;;5.30;99.90;;;;;;5024538;28;20056;-49
2022/01/19 14:48:42;;;;;;;42.58;22.10;;;5.30;99.90;;;;;;5041535;28;20099;-47